CYBB/YBB METAR and TAF weather

Enter ICAO airport designator
Station Type Date Time Source
CYBB METAR 2022/01/27 00:45 UTC NOAA

CYBB 270045Z 30013KT 260V320 6SM -SN BKN020 M25/M29 A2987 RMK SC6 LAST STFD OBS/NXT 271300Z SLP119


Station Type Date Time Source
CYBB Decoded METAR 2022/01/27 00:45 UTC NOAA

Pelly Bay Airport, Canada (CYBB) 68-32N 089-49W
Jan 26, 2022 - 07:45 PM EST / 2022.01.27 0045 UTC
Wind: from the WNW (300 degrees) at 15 MPH (13 KT) (direction variable):0
Visibility: 6 mile(s):0
Sky conditions: mostly cloudy
Weather: light snow
Temperature: -13 F (-25 C)
Windchill: -36 F (-38 C):2
Dew Point: -20 F (-29 C)
Relative Humidity: 69%
Pressure (altimeter): 29.87 in. Hg (1011 hPa)
ob: CYBB 270045Z 30013KT 260V320 6SM -SN BKN020 M25/M29 A2987 RMK SC6 LAST STFD OBS/NXT 271300Z SLP119
cycle: 1

Station Type Date Time Source
CYBB TAF 2022/01/26 21:09 UTC NOAA

TAF
AMD TAF
AMD CYBB 262106Z 2621/2702 24008KT P6SM SCT040 SCT080
TEMPO 2621/2702 3SM -SN BKN040 OVC080
RMK NXT FCST BY 271500Z

Example: see airport list